This is the latest recevied weather packets stored in our database for station/object DL3MEB-6. If no packets are shown the sender has not sent any weather packets the latest 10 day(s).
| Time | Temp. | Humidity | Pressure | Rain* | Wind** | Luminosity | Snow |
|---|---|---|---|---|---|---|---|
| 1777985725 | 24.44° C | 31% | 1003.8 hPa | 0 mm | - | - | - |
| 1777984825 | 24.44° C | 30% | 1004 hPa | 0 mm | - | - | - |
| 1777983914 | 25° C | 29% | 1004.1 hPa | 0 mm | - | - | - |
| 1777983007 | 25.56° C | 28% | 1003.8 hPa | 0 mm | - | - | - |
| 1777982098 | 26.11° C | 28% | 1003.9 hPa | 0 mm | - | - | - |
| 1777981194 | 25° C | 35% | 1004 hPa | 0 mm | - | - | - |
| 1777980281 | 24.44° C | 39% | 1004.2 hPa | 0 mm | - | - | - |
| 1777979369 | 24.44° C | 40% | 1004.3 hPa | 0 mm | - | - | - |
| 1777978466 | 23.89° C | 42% | - | 0 mm | - | - | - |
| 1777978464 | 23.89° C | 42% | 1004.5 hPa | 0 mm | - | - | - |
| 1777977561 | 23.33° C | 42% | 1004.9 hPa | 0 mm | - | - | - |
| 1777976655 | 22.78° C | 41% | - | 0 mm | - | - | - |
| 1777976652 | 22.78° C | 41% | 1005.1 hPa | 0 mm | - | - | - |
| 1777975743 | 22.22° C | 45% | 1005.4 hPa | 0 mm | - | - | - |
| 1777974837 | 21.11° C | 46% | 1005.6 hPa | 0 mm | - | - | - |
| 1777973937 | 20.56° C | 47% | 1005.9 hPa | 0 mm | - | - | - |
| 1777973036 | 20° C | 49% | 1006 hPa | 0 mm | - | - | - |
| 1777972127 | 19.44° C | 55% | 1006.1 hPa | 0 mm | - | - | - |
| 1777971219 | 18.89° C | 53% | 1006.4 hPa | 0 mm | - | - | - |
| 1777970313 | 18.33° C | 59% | 1006.6 hPa | 0 mm | - | - | - |
| 1777969414 | 17.78° C | 63% | 1006.8 hPa | 0 mm | - | - | - |
| 1777968504 | 16.67° C | 68% | 1006.9 hPa | 0 mm | - | - | - |
| 1777967599 | 16.11° C | 72% | 1007.1 hPa | 0 mm | - | - | - |
| 1777966697 | 15.56° C | 74% | 1007.2 hPa | 0 mm | - | - | - |
| 1777965798 | 15° C | 78% | 1007.2 hPa | 0 mm | - | - | - |
* Rain latest hour (hover to see other rain measurements)
** Current wind speed in m/s (hover to see current wind gust speed)